Time;durP1;ratioP1;P1;durP2;ratioP2;P2;SDS_P1;SDS_P2;PMS_P1;PMS_P2;Temp;Humidity;BMP_temperature;BMP_pressure;BME280_temperature;BME280_humidity;BME280_pressure;Samples;Min_cycle;Max_cycle;Signal;HPM_P1;HPM_P2
2022/12/25 00:01:39;;;;;;;24.67;7.80;;;;;;;8.00;100.00;101414.84;5329691;27;20028;-84
2022/12/25 00:04:11;;;;;;;26.58;7.10;;;;;;;8.04;100.00;101411.84;5334803;27;20024;-84
2022/12/25 00:06:42;;;;;;;24.75;7.82;;;;;;;8.01;100.00;101412.06;5332190;27;20046;-84
2022/12/25 00:09:14;;;;;;;26.27;7.60;;;;;;;8.08;100.00;101409.78;5329946;27;20465;-84
2022/12/25 00:11:45;;;;;;;24.30;8.35;;;;;;;8.13;100.00;101405.00;5330703;27;20024;-84
2022/12/25 00:14:16;;;;;;;27.27;7.63;;;;;;;8.12;100.00;101401.50;5336143;27;20451;-84
2022/12/25 00:16:48;;;;;;;24.35;7.68;;;;;;;8.13;100.00;101413.84;5333589;27;20039;-84
2022/12/25 00:19:19;;;;;;;26.95;8.10;;;;;;;8.19;100.00;101417.84;5330058;27;20085;-84
2022/12/25 00:21:50;;;;;;;22.83;6.15;;;;;;;8.30;100.00;101417.88;5330808;27;20100;-84
2022/12/25 00:24:22;;;;;;;25.67;7.90;;;;;;;8.18;100.00;101409.97;5337450;27;20028;-84
2022/12/25 00:26:53;;;;;;;18.40;7.65;;;;;;;8.22;100.00;101414.97;5334816;27;20102;-84
2022/12/25 00:29:24;;;;;;;21.85;7.80;;;;;;;8.32;100.00;101415.13;5328847;27;24563;-84
2022/12/25 00:31:55;;;;;;;27.20;7.85;;;;;;;8.26;100.00;101413.78;5329324;27;20139;-84
2022/12/25 00:34:27;;;;;;;22.65;8.43;;;;;;;8.24;100.00;101410.38;5332974;27;20500;-83
2022/12/25 00:36:59;;;;;;;27.15;8.45;;;;;;;8.15;100.00;101397.75;5326530;27;20071;-84
2022/12/25 00:39:30;;;;;;;30.85;9.35;;;;;;;8.17;100.00;101403.84;5334952;27;20052;-84
2022/12/25 00:42:20;;;;;;;26.50;8.65;;;;;;;8.25;100.00;101406.75;5336013;27;20462;-84
2022/12/25 00:44:51;;;;;;;28.10;8.95;;;;;;;8.19;100.00;101396.59;5332458;27;20027;-84
2022/12/25 00:47:23;;;;;;;29.42;8.85;;;;;;;8.28;100.00;101397.72;5340913;27;20034;-84
2022/12/25 00:49:54;;;;;;;30.45;9.52;;;;;;;8.25;100.00;101397.94;5333742;27;20042;-85
2022/12/25 00:52:25;;;;;;;27.60;9.68;;;;;;;8.23;100.00;101406.03;5329371;27;20024;-84
2022/12/25 00:54:56;;;;;;;25.30;8.88;;;;;;;8.22;100.00;101401.69;5332775;27;20030;-84
2022/12/25 00:57:28;;;;;;;26.65;8.40;;;;;;;8.31;100.00;101405.47;5326019;27;20071;-84
2022/12/25 00:59:59;;;;;;;26.42;10.80;;;;;;;8.29;100.00;101394.94;5324793;27;20034;-84
2022/12/25 01:02:30;;;;;;;26.40;9.93;;;;;;;8.28;100.00;101395.91;5334514;27;20088;-84
2022/12/25 01:05:02;;;;;;;35.50;12.13;;;;;;;8.23;100.00;101383.91;5339756;27;32337;-83
2022/12/25 01:07:33;;;;;;;28.75;10.30;;;;;;;8.28;100.00;101384.44;5345078;27;20032;-85
2022/12/25 01:10:23;;;;;;;38.17;10.95;;;;;;;8.30;100.00;101393.97;5331372;27;20063;-84
2022/12/25 01:12:57;;;;;;;24.05;9.07;;;;;;;8.28;100.00;101385.25;5336542;27;20539;-85
2022/12/25 01:15:29;;;;;;;32.55;9.93;;;;;;;8.28;100.00;101385.25;5339623;27;20022;-85
2022/12/25 01:18:00;;;;;;;32.38;9.70;;;;;;;8.26;100.00;101383.69;5333258;27;20404;-84
2022/12/25 01:20:31;;;;;;;31.35;9.80;;;;;;;8.27;100.00;101380.91;5329733;27;20026;-85
2022/12/25 01:23:03;;;;;;;31.13;10.50;;;;;;;8.37;100.00;101390.88;5341170;27;20035;-84
2022/12/25 01:25:34;;;;;;;29.30;10.68;;;;;;;8.36;100.00;101394.47;5340060;27;20034;-84
2022/12/25 01:28:06;;;;;;;25.63;10.60;;;;;;;8.33;100.00;101382.28;5331984;27;20020;-85
2022/12/25 01:30:37;;;;;;;27.00;9.95;;;;;;;8.36;100.00;101389.16;5338938;27;20024;-84
2022/12/25 01:33:08;;;;;;;28.02;10.48;;;;;;;8.38;100.00;101403.19;5343788;27;20035;-84
2022/12/25 01:35:40;;;;;;;28.85;10.57;;;;;;;8.43;100.00;101412.56;5347432;27;20094;-85
2022/12/25 01:38:12;;;;;;;28.55;12.10;;;;;;;8.38;100.00;101400.53;5349798;27;20034;-84
2022/12/25 01:40:43;;;;;;;31.73;10.15;;;;;;;8.44;100.00;101416.06;5348129;27;20091;-84
2022/12/25 01:43:27;;;;;;;27.15;10.93;;;;;;;8.42;100.00;101408.19;5341162;27;20433;-84
2022/12/25 01:45:59;;;;;;;27.40;11.75;;;;;;;8.44;100.00;101408.91;5345218;27;20083;-84
2022/12/25 01:48:37;;;;;;;32.78;11.68;;;;;;;8.49;100.00;101419.22;5343645;27;20032;-85
2022/12/25 01:51:36;;;;;;;25.23;10.35;;;;;;;8.49;100.00;101427.19;5344635;27;20110;-84
2022/12/25 01:54:12;;;;;;;27.80;11.35;;;;;;;8.52;100.00;101435.78;5344990;27;20029;-84
2022/12/25 01:56:44;;;;;;;;;;;;;;;8.58;100.00;101437.13;5344630;27;20030;-84
2022/12/25 01:59:20;;;;;;;19.58;9.60;;;;;;;8.51;100.00;101439.41;5347712;27;19912;-84
2022/12/25 02:01:52;;;;;;;22.58;9.52;;;;;;;8.49;100.00;101435.19;5341213;27;20024;-84
2022/12/25 02:04:44;;;;;;;23.20;9.93;;;;;;;8.45;100.00;101425.72;5335333;27;20042;-84
2022/12/25 02:07:19;;;;;;;23.02;10.43;;;;;;;8.52;100.00;101445.59;5336183;27;20434;-84
2022/12/25 02:09:51;;;;;;;30.15;10.57;;;;;;;8.52;100.00;101442.94;5337417;27;20495;-84
2022/12/25 02:12:25;;;;;;;20.58;9.98;;;;;;;8.53;100.00;101436.63;5339767;27;20031;-84
2022/12/25 02:15:00;;;;;;;25.88;9.90;;;;;;;8.47;100.00;101435.28;5332068;27;20081;-84
2022/12/25 02:17:44;;;;;;;23.73;10.25;;;;;;;8.51;100.00;101438.56;5333955;27;20039;-84
2022/12/25 02:20:23;;;;;;;21.83;9.35;;;;;;;8.55;100.00;101447.16;5334824;27;20154;-84
2022/12/25 02:23:30;;;;;;;25.52;10.02;;;;;;;8.55;100.00;101448.00;5332294;27;20091;-84
2022/12/25 02:26:39;;;;;;;24.63;9.75;;;;;;;8.61;100.00;101447.56;5336596;27;20032;-84
2022/12/25 02:29:32;;;;;;;24.95;9.77;;;;;;;8.63;100.00;101447.44;5342172;27;20038;-84
2022/12/25 02:32:25;;;;;;;20.45;9.45;;;;;;;8.61;100.00;101441.41;5332765;27;20032;-83
2022/12/25 02:35:15;;;;;;;21.17;9.23;;;;;;;8.60;100.00;101447.66;5322385;27;20472;-84
2022/12/25 02:37:50;;;;;;;26.15;9.88;;;;;;;8.55;100.00;101418.75;5331327;27;20764;-84
2022/12/25 02:40:29;;;;;;;22.35;10.02;;;;;;;8.63;100.00;101428.81;5338053;27;20070;-84
2022/12/25 03:07:03;;;;;;;25.33;10.98;;;;;;;8.54;100.00;101384.28;5331485;27;20071;-83
2022/12/25 03:12:45;;;;;;;21.98;9.55;;;;;;;8.34;100.00;101373.31;5335208;27;20035;-83
2022/12/25 03:18:14;;;;;;;17.83;9.27;;;;;;;8.24;100.00;101349.25;5337812;27;20031;-84
2022/12/25 03:32:21;;;;;;;19.00;9.77;;;;;;;8.02;100.00;101328.75;5329168;27;20182;-84
2022/12/25 04:38:40;;;;;;;12.32;5.90;;;;;;;7.93;100.00;101314.34;5338751;27;20135;-84
2022/12/25 04:41:13;;;;;;;15.63;5.88;;;;;;;8.05;100.00;101325.03;5333462;27;20020;-83
2022/12/25 04:43:44;;;;;;;15.75;5.32;;;;;;;8.04;100.00;101320.66;5328344;27;20040;-83
2022/12/25 04:46:15;;;;;;;15.35;5.57;;;;;;;8.17;100.00;101323.25;5337455;27;20053;-83
2022/12/25 04:48:47;;;;;;;14.95;5.38;;;;;;;8.15;100.00;101310.06;5332948;27;20110;-84
2022/12/25 04:51:24;;;;;;;13.32;5.05;;;;;;;8.10;100.00;101307.78;5339974;27;20093;-84
2022/12/25 04:53:55;;;;;;;14.23;4.43;;;;;;;8.07;100.00;101313.31;5330759;27;20077;-84
2022/12/25 04:56:27;;;;;;;10.23;4.53;;;;;;;8.07;100.00;101307.16;5336562;27;20031;-84
2022/12/25 04:58:58;;;;;;;11.38;3.88;;;;;;;8.06;100.00;101324.03;5338475;27;20058;-83
2022/12/25 05:01:29;;;;;;;11.68;3.92;;;;;;;8.00;100.00;101309.41;5334373;27;20015;-85
2022/12/25 05:04:01;;;;;;;12.23;4.88;;;;;;;7.99;100.00;101297.09;5330241;27;20024;-84
2022/12/25 05:06:32;;;;;;;10.13;3.90;;;;;;;8.00;100.00;101308.56;5334685;27;20040;-82
2022/12/25 05:09:03;;;;;;;8.75;3.55;;;;;;;8.04;100.00;101313.53;5340526;27;20038;-84
2022/12/25 05:11:35;;;;;;;14.00;4.20;;;;;;;8.02;100.00;101290.72;5338345;27;20130;-83
2022/12/25 05:14:06;;;;;;;8.60;4.00;;;;;;;8.10;100.00;101302.47;5338578;27;20116;-83
2022/12/25 05:16:37;;;;;;;10.75;4.38;;;;;;;8.18;100.00;101298.38;5333327;27;20052;-84
2022/12/25 05:19:09;;;;;;;9.93;3.60;;;;;;;8.18;100.00;101299.22;5331060;27;20052;-83
2022/12/25 05:21:41;;;;;;;14.30;3.60;;;;;;;8.20;100.00;101302.59;5329310;27;20016;-84
2022/12/25 05:24:12;;;;;;;11.57;3.58;;;;;;;8.24;100.00;101293.44;5341429;27;20052;-84
2022/12/25 05:26:43;;;;;;;8.73;3.60;;;;;;;8.33;100.00;101292.75;5336599;27;20118;-85
2022/12/25 05:29:15;;;;;;;10.48;3.50;;;;;;;8.37;100.00;101284.53;5333592;27;20051;-84
2022/12/25 05:31:46;;;;;;;9.88;3.15;;;;;;;8.43;100.00;101281.44;5328782;27;20027;-84
2022/12/25 05:34:17;;;;;;;12.70;3.60;;;;;;;8.38;100.00;101254.31;5324109;27;20040;-84
2022/12/25 05:36:49;;;;;;;11.75;3.70;;;;;;;8.43;100.00;101261.03;5338708;27;20031;-84
2022/12/25 05:39:20;;;;;;;10.23;3.28;;;;;;;8.46;100.00;101260.78;5328063;27;20040;-84
2022/12/25 05:41:51;;;;;;;8.05;4.00;;;;;;;8.41;100.00;101254.94;5327215;27;20115;-84
2022/12/25 05:44:23;;;;;;;9.15;3.70;;;;;;;8.42;100.00;101255.78;5317824;27;20024;-85
2022/12/25 05:46:54;;;;;;;7.35;3.63;;;;;;;8.49;100.00;101270.34;5330072;27;20024;-84
2022/12/25 05:49:25;;;;;;;8.95;3.33;;;;;;;8.48;100.00;101263.31;5331214;27;20472;-84
2022/12/25 05:51:57;;;;;;;9.95;3.03;;;;;;;8.52;100.00;101268.28;5329331;27;20094;-84
2022/12/25 05:54:28;;;;;;;9.40;3.40;;;;;;;8.55;100.00;101275.16;5320694;27;20036;-84
2022/12/25 05:56:59;;;;;;;11.43;3.58;;;;;;;8.58;100.00;101269.63;5339958;27;20030;-84
2022/12/25 05:59:32;;;;;;;11.38;3.65;;;;;;;8.56;100.00;101265.41;5336762;27;20016;-85
2022/12/25 06:02:03;;;;;;;8.57;3.33;;;;;;;8.55;100.00;101248.56;5338811;27;20027;-85
2022/12/25 06:04:34;;;;;;;7.82;2.83;;;;;;;8.54;100.00;101243.38;5335384;27;20468;-85
2022/12/25 06:07:06;;;;;;;9.35;3.58;;;;;;;8.59;100.00;101241.19;5331814;27;20124;-84
2022/12/25 06:09:37;;;;;;;8.73;2.53;;;;;;;8.63;100.00;101251.50;5336605;27;20162;-84
2022/12/25 06:12:08;;;;;;;9.02;2.95;;;;;;;8.65;100.00;101251.38;5334686;27;20043;-84
2022/12/25 06:14:40;;;;;;;9.43;3.05;;;;;;;8.63;100.00;101240.84;5343852;27;20091;-84
2022/12/25 06:17:11;;;;;;;8.57;2.65;;;;;;;8.76;100.00;101250.53;5338169;27;20032;-84
2022/12/25 06:19:42;;;;;;;5.18;2.42;;;;;;;8.74;100.00;101239.16;5329527;27;20017;-84
2022/12/25 06:22:13;;;;;;;7.35;2.95;;;;;;;8.74;100.00;101234.69;5331387;27;20521;-85
2022/12/25 06:24:45;;;;;;;6.60;2.85;;;;;;;8.72;100.00;101218.00;5341955;27;20030;-82
2022/12/25 06:27:16;;;;;;;6.75;2.50;;;;;;;8.68;100.00;101212.09;5339080;27;21825;-84
2022/12/25 06:29:47;;;;;;;4.65;2.70;;;;;;;8.75;100.00;101231.06;5351016;27;20495;-84
2022/12/25 06:32:19;;;;;;;8.13;2.42;;;;;;;8.72;100.00;101228.66;5336908;27;20036;-84
2022/12/25 06:34:50;;;;;;;6.55;2.50;;;;;;;8.78;100.00;101222.00;5329888;27;20026;-84
2022/12/25 06:37:21;;;;;;;8.23;3.25;;;;;;;8.75;100.00;101203.59;5335348;27;20081;-84
2022/12/25 06:39:53;;;;;;;6.95;3.10;;;;;;;8.78;100.00;101203.38;5338499;27;20028;-84
2022/12/25 06:42:24;;;;;;;7.47;2.35;;;;;;;8.77;100.00;101199.03;5338901;27;20055;-84
2022/12/25 06:44:55;;;;;;;7.25;2.58;;;;;;;8.83;100.00;101195.88;5332112;27;20029;-84
2022/12/25 06:47:27;;;;;;;7.15;3.05;;;;;;;8.76;100.00;101189.34;5329502;27;20388;-84
2022/12/25 06:49:58;;;;;;;6.20;2.70;;;;;;;8.77;100.00;101183.09;5336129;27;20035;-85
2022/12/25 06:52:31;;;;;;;7.55;2.58;;;;;;;8.83;100.00;101179.91;5334165;27;20034;-85
2022/12/25 06:55:02;;;;;;;5.63;3.13;;;;;;;8.81;100.00;101161.41;5328262;27;20020;-85
2022/12/25 06:57:33;;;;;;;6.05;3.08;;;;;;;8.81;100.00;101161.41;5335089;27;20031;-85
2022/12/25 07:00:06;;;;;;;11.57;3.33;;;;;;;8.82;100.00;101154.31;5333002;27;20031;-84
2022/12/25 07:02:37;;;;;;;6.93;3.30;;;;;;;8.81;100.00;101149.94;5334457;27;20043;-84
2022/12/25 07:05:08;;;;;;;9.07;3.72;;;;;;;8.83;100.00;101155.97;5339769;27;20028;-85
2022/12/25 07:07:40;;;;;;;7.60;2.83;;;;;;;8.81;100.00;101155.25;5335138;27;20039;-84
2022/12/25 07:10:11;;;;;;;7.35;3.00;;;;;;;8.86;100.00;101156.56;5334555;27;20091;-84
2022/12/25 07:12:42;;;;;;;7.95;3.58;;;;;;;8.86;100.00;101166.38;5330677;27;20022;-84
2022/12/25 07:15:14;;;;;;;5.97;2.72;;;;;;;8.88;100.00;101170.59;5338264;27;20034;-85
2022/12/25 07:17:45;;;;;;;9.35;3.72;;;;;;;8.81;100.00;101164.06;5329269;27;20388;-85
2022/12/25 07:20:16;;;;;;;9.93;3.00;;;;;;;8.83;100.00;101170.13;5333886;27;20031;-84
2022/12/25 07:22:48;;;;;;;7.22;3.22;;;;;;;8.88;100.00;101188.38;5335220;27;20023;-84
2022/12/25 07:25:19;;;;;;;7.55;3.20;;;;;;;8.84;100.00;101190.44;5330906;27;20042;-84
2022/12/25 07:27:50;;;;;;;4.95;2.55;;;;;;;8.92;100.00;101196.97;5332945;27;20125;-84
2022/12/25 07:30:21;;;;;;;7.22;2.60;;;;;;;8.92;100.00;101207.59;5336535;27;20115;-84
2022/12/25 07:32:53;;;;;;;6.90;3.10;;;;;;;8.92;100.00;101197.78;5337587;27;20063;-84
2022/12/25 07:35:24;;;;;;;6.97;2.70;;;;;;;8.86;100.00;101195.63;5329903;27;20038;-84
2022/12/25 07:37:55;;;;;;;6.65;2.72;;;;;;;8.92;100.00;101194.28;5324557;27;20017;-85
2022/12/25 07:40:27;;;;;;;6.63;3.30;;;;;;;8.87;100.00;101186.66;5333619;27;20024;-84
2022/12/25 07:42:58;;;;;;;7.55;3.38;;;;;;;8.81;100.00;101164.06;5326597;27;20024;-84
2022/12/25 07:45:29;;;;;;;8.13;2.72;;;;;;;8.80;100.00;101156.22;5332400;27;20024;-84
2022/12/25 07:48:01;;;;;;;5.70;2.60;;;;;;;8.73;100.00;101158.56;5329528;27;20024;-84
2022/12/25 07:50:32;;;;;;;6.55;2.50;;;;;;;8.80;100.00;101172.19;5330296;27;20038;-84
2022/12/25 07:53:03;;;;;;;9.52;3.15;;;;;;;8.76;100.00;101176.91;5332154;27;20081;-84
2022/12/25 07:55:35;;;;;;;5.07;2.63;;;;;;;8.92;100.00;101181.84;5353941;27;20078;-84
2022/12/25 07:58:06;;;;;;;6.85;2.67;;;;;;;8.84;100.00;101190.44;5331346;27;20147;-84
2022/12/25 08:00:37;;;;;;;9.27;2.90;;;;;;;8.83;100.00;101202.03;5324809;27;20415;-84
2022/12/25 08:03:08;;;;;;;7.07;3.15;;;;;;;9.06;100.00;101221.50;5325745;27;20030;-84
2022/12/25 08:05:40;;;;;;;7.95;3.05;;;;;;;9.05;100.00;101224.28;5325935;28;20039;-84
2022/12/25 08:08:11;;;;;;;7.18;3.20;;;;;;;8.92;100.00;101218.25;5331638;27;20122;-84
2022/12/25 08:10:47;;;;;;;7.70;2.88;;;;;;;8.90;100.00;101226.34;5333305;27;20036;-85
2022/12/25 08:13:18;;;;;;;10.50;4.05;;;;;;;8.87;100.00;101229.22;5331265;27;20051;-83
2022/12/25 08:15:49;;;;;;;8.63;3.50;;;;;;;8.87;100.00;101246.06;5333913;27;20411;-83
2022/12/25 08:18:21;;;;;;;7.28;3.20;;;;;;;8.89;100.00;101265.41;5333578;27;20032;-83
2022/12/25 08:20:52;;;;;;;6.30;3.35;;;;;;;8.87;100.00;101259.38;5325719;27;20038;-84
2022/12/25 08:23:23;;;;;;;8.20;3.45;;;;;;;8.87;100.00;101255.84;5326421;27;20023;-84
2022/12/25 08:25:59;;;;;;;10.40;3.70;;;;;;;8.89;100.00;101230.00;5331984;27;20050;-83
2022/12/25 08:28:31;;;;;;;10.55;3.75;;;;;;;8.87;100.00;101227.44;5325063;27;20070;-82
2022/12/25 08:31:13;;;;;;;10.13;4.55;;;;;;;8.93;100.00;101234.09;5328615;27;20106;-83
2022/12/25 08:33:45;;;;;;;12.02;5.20;;;;;;;8.82;100.00;101226.13;5327064;27;20560;-83
2022/12/25 08:36:18;;;;;;;9.88;4.80;;;;;;;8.83;100.00;101230.47;5337437;27;20496;-83
2022/12/25 08:38:50;;;;;;;9.98;5.13;;;;;;;8.86;100.00;101236.38;5330893;27;20146;-83
2022/12/25 08:41:24;;;;;;;7.28;4.30;;;;;;;8.82;100.00;101242.09;5335790;27;20107;-83
2022/12/25 08:43:56;;;;;;;8.65;3.97;;;;;;;8.84;100.00;101256.09;5329758;27;20465;-83
2022/12/25 08:46:27;;;;;;;8.18;3.67;;;;;;;8.79;100.00;101251.13;5324071;27;20115;-83
2022/12/25 08:48:59;;;;;;;6.65;3.90;;;;;;;8.74;100.00;101237.34;5331446;27;20701;-84
2022/12/25 08:51:30;;;;;;;8.98;4.10;;;;;;;8.81;100.00;101251.03;5320761;27;20123;-84
2022/12/25 08:54:02;;;;;;;7.57;3.75;;;;;;;8.82;100.00;101248.25;5327371;27;20040;-84
2022/12/25 08:56:35;;;;;;;10.02;3.78;;;;;;;8.75;100.00;101241.72;5323935;28;20199;-84
2022/12/25 08:59:06;;;;;;;9.45;5.25;;;;;;;8.71;100.00;101229.59;5306246;28;20104;-83
2022/12/25 09:01:38;;;;;;;9.93;4.60;;;;;;;8.68;100.00;101235.19;5328591;27;20134;-83
2022/12/25 09:04:09;;;;;;;7.50;4.13;;;;;;;8.61;100.00;101220.69;5334524;27;20035;-82
2022/12/25 09:06:40;;;;;;;7.60;3.92;;;;;;;8.65;100.00;101220.31;5322734;27;20044;-83
2022/12/25 09:09:12;;;;;;;12.93;4.55;;;;;;;8.64;100.00;101215.09;5323597;28;20484;-83
2022/12/25 09:11:43;;;;;;;10.95;4.40;;;;;;;8.52;100.00;101204.47;5323643;27;20023;-83
2022/12/25 09:14:21;;;;;;;9.82;4.60;;;;;;;8.55;100.00;101211.34;5333754;22;20060;-85
2022/12/25 09:16:53;;;;;;;12.20;5.32;;;;;;;8.52;100.00;101235.53;5305151;28;20393;-85
2022/12/25 09:19:25;;;;;;;11.23;5.72;;;;;;;8.43;100.00;101236.25;5288247;28;20036;-84
2022/12/25 09:21:57;;;;;;;9.95;5.55;;;;;;;8.54;100.00;101240.72;5308355;28;20032;-86
2022/12/25 09:24:29;;;;;;;11.32;5.60;;;;;;;8.50;100.00;101243.63;5310744;28;20088;-85
2022/12/25 09:27:00;;;;;;;10.55;4.95;;;;;;;8.44;100.00;101233.47;5310731;28;20111;-85
2022/12/25 09:29:32;;;;;;;9.98;4.82;;;;;;;8.46;100.00;101233.34;5313174;28;20120;-84
2022/12/25 09:32:04;;;;;;;12.50;4.97;;;;;;;8.47;100.00;101221.75;5291705;28;20039;-84
2022/12/25 09:34:37;;;;;;;8.25;4.75;;;;;;;8.49;100.00;101225.97;5304271;28;20465;-84
2022/12/25 09:37:08;;;;;;;13.60;5.35;;;;;;;8.51;100.00;101213.41;5311712;28;20028;-86
2022/12/25 09:39:40;;;;;;;10.43;4.70;;;;;;;8.52;100.00;101191.19;5294136;28;20073;-84
2022/12/25 09:42:27;;;;;;;9.05;4.75;;;;;;;8.59;100.00;101202.19;5309898;28;20020;-84
2022/12/25 09:45:10;;;;;;;15.93;4.93;;;;;;;8.58;100.00;101213.78;5304376;28;20025;-85
2022/12/25 09:47:45;;;;;;;11.95;5.13;;;;;;;8.56;100.00;101210.41;5292096;28;20025;-84
2022/12/25 09:50:34;;;;;;;10.90;5.28;;;;;;;8.59;100.00;101209.28;5294112;28;20029;-85
2022/12/25 09:53:15;;;;;;;14.60;5.30;;;;;;;8.61;100.00;101200.25;5295036;28;20089;-85
2022/12/25 09:56:12;;;;;;;10.15;5.35;;;;;;;8.67;100.00;101180.28;5293434;28;20028;-85
2022/12/25 09:58:44;;;;;;;10.15;5.07;;;;;;;8.62;100.00;101191.28;5294529;28;20456;-84
2022/12/25 10:01:51;;;;;;;12.15;5.57;;;;;;;8.66;100.00;101195.41;5312770;28;20041;-84
2022/12/25 10:04:52;;;;;;;12.10;5.97;;;;;;;8.70;100.00;101186.22;5291425;28;20013;-83
2022/12/25 10:07:47;;;;;;;13.45;6.75;;;;;;;8.70;100.00;101178.25;5307839;28;20045;-84
2022/12/25 10:10:27;;;;;;;12.57;6.97;;;;;;;8.70;100.00;101166.75;5309222;28;20075;-84
2022/12/25 10:13:21;;;;;;;11.52;6.88;;;;;;;8.72;100.00;101169.31;5284954;28;20035;-84
2022/12/25 10:16:05;;;;;;;13.80;7.95;;;;;;;8.74;100.00;101170.84;5302381;28;20195;-84
2022/12/25 10:18:37;;;;;;;13.57;8.02;;;;;;;8.72;100.00;101163.97;5300892;28;20040;-86
2022/12/25 10:21:12;;;;;;;12.27;8.93;;;;;;;8.76;100.00;101176.06;5297832;28;20139;-85
2022/12/25 10:23:51;;;;;;;16.63;8.65;;;;;;;8.75;100.00;101167.25;5296788;28;20021;-84
2022/12/25 10:26:25;;;;;;;12.98;7.90;;;;;;;8.75;100.00;101158.41;5296312;28;20448;-84
2022/12/25 10:29:09;;;;;;;15.45;7.70;;;;;;;8.77;100.00;101159.97;5307784;28;20044;-85
2022/12/25 10:31:44;;;;;;;12.32;7.13;;;;;;;8.73;100.00;101155.03;5312137;28;20033;-85
2022/12/25 10:34:15;;;;;;;14.40;7.20;;;;;;;8.76;100.00;101166.25;5295654;28;20039;-87
2022/12/25 10:36:48;;;;;;;11.48;7.68;;;;;;;8.69;100.00;101160.56;5308529;28;20023;-84
2022/12/25 10:39:25;;;;;;;13.85;7.18;;;;;;;8.68;100.00;101158.91;5294682;28;20109;-84
2022/12/25 10:41:56;;;;;;;;;;;;;;;8.76;100.00;101165.41;5306501;27;20024;-84
2022/12/25 10:44:28;;;;;;;11.98;7.38;;;;;;;8.68;100.00;101158.06;5305756;27;20412;-85
2022/12/25 10:47:02;;;;;;;14.88;7.55;;;;;;;8.65;100.00;101151.16;5305670;28;20027;-84
2022/12/25 10:49:38;;;;;;;15.63;8.15;;;;;;;8.70;100.00;101143.66;5313861;28;20427;-84
2022/12/25 10:52:23;;;;;;;14.90;9.10;;;;;;;8.70;100.00;101135.69;5293077;28;20028;-83
2022/12/25 10:54:55;;;;;;;15.00;8.35;;;;;;;8.65;100.00;101127.22;5278368;28;20894;-84
2022/12/25 10:57:28;;;;;;;12.50;7.10;;;;;;;8.68;100.00;101112.84;5294402;28;20031;-84
2022/12/25 11:00:00;;;;;;;13.05;7.70;;;;;;;8.69;100.00;101110.03;5297115;28;20461;-83
2022/12/25 11:02:42;;;;;;;10.82;6.70;;;;;;;8.75;100.00;101105.19;5307622;27;20024;-82
2022/12/25 11:05:22;;;;;;;9.98;7.13;;;;;;;8.76;100.00;101110.41;5308672;28;20032;-83
2022/12/25 11:07:55;;;;;;;12.10;7.35;;;;;;;8.73;100.00;101107.16;5311367;27;20059;-83
2022/12/25 11:10:33;;;;;;;12.35;8.43;;;;;;;8.76;100.00;101121.03;5292778;28;20036;-82
2022/12/25 11:13:15;;;;;;;14.90;9.93;;;;;;;8.75;100.00;101115.84;5302387;28;20024;-83
2022/12/25 11:15:48;;;;;;;14.20;9.90;;;;;;;8.82;100.00;101109.09;5295877;28;20090;-84
2022/12/25 11:18:22;;;;;;;17.40;10.82;;;;;;;8.82;100.00;101101.94;5311681;28;20457;-83
2022/12/25 11:21:02;;;;;;;17.33;9.68;;;;;;;8.86;100.00;101099.88;5323961;28;20039;-84
2022/12/25 11:23:37;;;;;;;16.77;9.43;;;;;;;8.88;100.00;101092.59;5323455;28;20760;-82
2022/12/25 11:26:10;;;;;;;13.57;7.40;;;;;;;8.91;100.00;101084.38;5297120;27;20039;-84
2022/12/25 11:28:44;;;;;;;14.45;8.13;;;;;;;8.94;100.00;101064.66;5294726;28;20048;-85
2022/12/25 11:31:18;;;;;;;15.05;9.00;;;;;;;8.99;100.00;101057.97;5302307;28;20115;-84
2022/12/25 11:34:03;;;;;;;17.58;9.55;;;;;;;9.04;100.00;101061.09;5304973;28;20024;-84
2022/12/25 11:36:50;;;;;;;16.02;11.10;;;;;;;9.05;100.00;101067.28;5308483;28;20503;-86
2022/12/25 11:39:35;;;;;;;17.85;11.77;;;;;;;8.92;100.00;101050.63;5296652;28;20130;-84
2022/12/25 11:42:09;;;;;;;17.80;11.40;;;;;;;8.87;100.00;101051.00;5314657;28;20028;-84
2022/12/25 11:45:17;;;;;;;18.75;10.88;;;;;;;8.90;100.00;101040.13;5315328;28;20103;-86
2022/12/25 11:47:55;;;;;;;15.85;10.15;;;;;;;8.85;100.00;101051.16;5277297;28;20028;-85
2022/12/25 11:50:42;;;;;;;16.58;9.98;;;;;;;8.86;100.00;101034.22;5306493;28;20437;-87
2022/12/25 11:53:20;;;;;;;13.75;10.50;;;;;;;8.84;100.00;101040.66;5306510;28;20032;-86
2022/12/25 11:55:57;;;;;;;15.77;10.07;;;;;;;8.80;100.00;101029.41;5305325;28;20020;-87
2022/12/25 11:58:34;;;;;;;;;;;;;;;8.87;100.00;101019.09;5304597;28;20036;-83
2022/12/25 12:01:35;;;;;;;15.98;9.50;;;;;;;8.81;100.00;101024.94;5296246;28;20316;-83
2022/12/25 12:04:19;;;;;;;17.17;10.27;;;;;;;8.79;100.00;101026.88;5291512;27;20072;-84
2022/12/25 12:06:58;;;;;;;15.43;10.32;;;;;;;8.83;100.00;101029.13;5300414;28;20032;-85
2022/12/25 12:09:43;;;;;;;15.00;11.27;;;;;;;8.82;100.00;101027.47;5288461;28;20044;-84
2022/12/25 12:12:22;;;;;;;17.65;10.52;;;;;;;8.80;100.00;101026.75;5282167;28;20024;-85
2022/12/25 12:15:17;;;;;;;16.60;11.15;;;;;;;8.80;100.00;101039.19;5297003;28;20048;-83
2022/12/25 12:17:48;;;;;;;19.92;14.38;;;;;;;8.68;100.00;101025.94;5296003;28;20031;-83
2022/12/25 12:20:23;;;;;;;22.65;14.90;;;;;;;8.75;100.00;101033.41;5304994;28;20024;-83
2022/12/25 12:22:55;;;;;;;20.15;13.80;;;;;;;8.79;100.00;101021.56;5296348;28;20040;-83
2022/12/25 12:25:28;;;;;;;18.45;14.05;;;;;;;8.80;100.00;101021.44;5299160;28;20028;-83
2022/12/25 12:28:00;;;;;;;18.80;13.40;;;;;;;8.79;100.00;101017.06;5298982;28;20442;-83
2022/12/25 12:30:34;;;;;;;18.10;13.95;;;;;;;8.83;100.00;101007.03;5297384;28;20024;-83
2022/12/25 12:33:06;;;;;;;17.73;13.50;;;;;;;8.86;100.00;101002.28;5297804;28;20038;-83
2022/12/25 12:35:39;;;;;;;19.65;13.43;;;;;;;8.89;100.00;100993.22;5299106;28;20077;-83
2022/12/25 12:38:16;;;;;;;19.63;14.80;;;;;;;8.99;100.00;100988.78;5299308;28;20017;-83
2022/12/25 12:40:55;;;;;;;20.63;15.25;;;;;;;9.08;100.00;100984.53;5293990;28;20469;-83
2022/12/25 12:43:33;;;;;;;19.63;15.85;;;;;;;9.07;100.00;100989.00;5299746;28;20036;-84
2022/12/25 12:46:07;;;;;;;21.67;16.50;;;;;;;9.01;100.00;100988.66;5296683;28;20487;-83
2022/12/25 12:48:41;;;;;;;26.92;22.67;;;;;;;9.00;100.00;101001.16;5295870;28;20047;-83
2022/12/25 12:51:27;;;;;;;23.60;17.13;;;;;;;9.03;100.00;100992.91;5295195;28;20385;-83
2022/12/25 12:54:16;;;;;;;23.42;16.95;;;;;;;9.03;100.00;100992.91;5294185;28;20041;-83
2022/12/25 12:57:05;;;;;;;25.13;18.38;;;;;;;9.06;100.00;100989.13;5295532;28;20104;-83
2022/12/25 12:59:45;;;;;;;27.50;20.58;;;;;;;9.03;100.00;100989.41;5297865;28;20342;-83
2022/12/25 13:02:33;;;;;;;28.45;19.55;;;;;;;8.97;100.00;100984.59;5301119;28;20424;-83
2022/12/25 13:05:50;;;;;;;26.85;18.27;;;;;;;9.04;100.00;100980.44;5306413;28;20428;-82
2022/12/25 13:08:57;;;;;;;32.65;22.92;;;;;;;9.00;100.00;100981.69;5277217;28;20025;-83
2022/12/25 13:11:34;;;;;;;31.20;20.03;;;;;;;8.96;100.00;100969.59;5299303;28;20036;-84
2022/12/25 13:14:17;;;;;;;24.48;19.30;;;;;;;9.00;100.00;100963.88;5295006;28;20296;-84
2022/12/25 13:16:53;;;;;;;24.35;20.10;;;;;;;9.03;100.00;100947.69;5261306;28;20374;-84
2022/12/25 13:19:28;;;;;;;27.77;20.73;;;;;;;9.07;100.00;100942.94;5256099;28;20422;-83
2022/12/25 13:22:02;;;;;;;31.58;20.77;;;;;;;9.07;100.00;100938.44;5265236;28;20040;-84
2022/12/25 13:24:36;;;;;;;28.88;20.95;;;;;;;9.07;100.00;100937.63;5275830;28;20029;-84
2022/12/25 13:27:26;;;;;;;26.30;19.40;;;;;;;9.16;100.00;100925.34;5251608;28;20088;-84
2022/12/25 13:29:59;;;;;;;29.88;21.60;;;;;;;9.13;100.00;100934.41;5269361;28;20080;-84
2022/12/25 13:32:32;;;;;;;28.08;19.27;;;;;;;9.14;100.00;100921.97;5262113;28;20544;-85
2022/12/25 13:35:10;;;;;;;24.90;19.40;;;;;;;9.11;100.00;100920.41;5261781;28;20112;-84
2022/12/25 13:37:43;;;;;;;24.40;19.08;;;;;;;9.11;100.00;100919.56;5264011;28;20029;-85
2022/12/25 13:40:23;;;;;;;24.48;17.73;;;;;;;9.13;100.00;100923.78;5271044;28;20037;-85
2022/12/25 13:43:00;;;;;;;24.35;19.38;;;;;;;9.11;100.00;100915.09;5278614;28;20037;-85